Accueil
METAR-TAF:

METAR-TAF

Aéroports :

Aéroport Tompkins d'Ithaca

Ithaca, New York, États-Unis

latitude: 42-29N, longitude: 076-27W, altitude: 335 m

Observation

Le bulletin a été fait il y a 50 minutes, à 00:56 UTC
Vent 4 kt de sud/sud-ouest
Température -4°C
Humidité 49%
Pression 1026 hPa
Visibilité: 16.1 km
Ciel clair

METAR: KITH 220056Z 20004KT 10SM CLR M04/M13 A3029 RMK AO2 SLP275 T10391133

Heure: 20:46 (01:46 UTC)

Prévision

Le bulletin a été fait il y a 2 heures et 17 minutes, à 23:29 UTC
Prévision valable du 22 à 00 UTC au 22 à 24 UTC
Vent 3 kt de sud-ouest
Visibilité: 10 km
Ciel clair
A partir de 22 à 1400 UTC
Vent 7 kt de sud-ouest
Visibilité: 10 km
Ciel clair

TAF: KITH 212329Z 2200/2224 22003KT P6SM SKC WS020/26035KT FM221400 23007KT P6SM SKC

Observations et prévisions météorologiques de plus de 4000 aéroports (messages METAR et TAF).

Les stations disponibles sont représentées par des disques jaunes et rouges sur la carte.

Passer la souris dessus pour voir le nom de la station.

Cliquer dessus pour voir les observations et prévisions météorologiques.

Pour changer de carte: cliquez sur les boutons verts avec une croix noire pour zoomer, sur le bouton vert avec un tiret pour effectuer un zoom arrière, ou sur les flèches vertes pour les cartes adjacentes.


METAR-TAF: